CW1248 Weather Reports


Display with metric or nautical units.
time (UTC)temp
F
wind
direction
speed
MPH
gust
MPH
rain 1hr
in
rain 24hr
in
rain mn
in
humidity
%
barometer
mb
20240417000552 50 112 14.0 25.0 0.02 1.19 1.19 88 997.4
20240417000052 50 89 10.0 23.0 0.01 1.18 1.18 87 997.5
20240416235552 50 112 12.0 23.0 0.01 1.18 1.18 86 997.1
20240416235051 50 105 11.0 19.0 0.00 1.17 1.17 86 997.7
20240416234555 50 96 10.0 21.0 0.00 1.17 1.17 84 997.9
20240416234521 50 115 11.0 21.0 0.00 1.17 1.17 84 997.9
20240416234050 50 103 12.0 21.0 0.00 1.17 1.17 84 997.5
20240416233550 50 105 13.0 26.0 0.00 1.17 1.17 84 996.9
20240416233057 50 91 13.0 23.0 0.00 1.17 1.17 84 996.6
20240416232549 50 91 13.0 23.0 0.00 1.17 1.17 84 996.6
20240416232047 50 83 11.0 23.0 0.00 1.17 1.17 84 996.6
20240416231547 50 84 13.0 26.0 0.00 1.17 1.17 84 996.8
20240416231048 50 107 13.0 27.0 0.00 1.17 1.17 84 997.0
20240416230547 49 112 15.0 27.0 0.00 1.17 1.17 85 996.9
20240416230046 49 91 11.0 17.0 0.00 1.17 1.17 86 996.8
20240416225547 49 121 9.0 19.0 0.00 1.17 1.17 87 996.8
20240416225044 48 63 8.0 20.0 0.01 1.17 1.17 88 997.2
20240416224547 48 77 10.0 20.0 0.01 1.17 1.17 89 997.5
20240416224047 47 65 11.0 21.0 0.01 1.17 1.17 90 997.2
20240416223544 47 77 10.0 21.0 0.01 1.17 1.17 92 997.2
20240416223045 46 48 9.0 15.0 0.02 1.17 1.17 92 997.6
20240416222544 46 53 7.0 18.0 0.03 1.17 1.17 92 998.1
20240416222043 46 84 8.0 18.0 0.05 1.17 1.17 92 998.4
20240416221542 46 32 7.0 15.0 0.06 1.17 1.17 93 998.3
20240416221042 46 65 8.0 15.0 0.07 1.17 1.17 93 998.1
20240416220542 46 71 7.0 15.0 0.08 1.17 1.17 93 998.1
20240416220042 45 70 9.0 16.0 0.09 1.17 1.17 93 998.4
20240416215544 45 76 10.0 18.0 0.10 1.17 1.17 92 998.5
20240416215041 45 58 10.0 18.0 0.09 1.15 1.15 92 998.4
20240416214541 45 8 9.0 16.0 0.11 1.15 1.15 92 997.9
20240416214040 45 37 8.0 16.0 0.12 1.15 1.15 92 998.2
20240416213538 45 70 9.0 15.0 0.13 1.15 1.15 92 999.2
20240416213038 45 34 6.0 11.0 0.15 1.14 1.14 92 999.7
20240416212537 45 39 4.0 12.0 0.16 1.13 1.13 92 999.9
20240416212039 45 54 6.0 11.0 0.16 1.12 1.12 92 1000.2
20240416211541 45 67 7.0 11.0 0.17 1.11 1.11 92 1000.9
20240416211037 45 46 5.0 14.0 0.17 1.09 1.09 92 1000.8
20240416210536 45 105 7.0 14.0 0.18 1.09 1.09 92 1000.5
20240416210037 45 53 7.0 13.0 0.19 1.08 1.08 92 1000.5
20240416205535 45 84 7.0 17.0 0.20 1.07 1.07 92 1000.6
20240416205036 45 72 5.0 17.0 0.24 1.07 1.07 92 1000.9
20240416204538 45 86 8.0 18.0 0.26 1.05 1.05 92 1001.4
20240416204035 45 74 10.0 18.0 0.33 1.04 1.04 91 1002.0
20240416203535 45 110 9.0 16.0 0.34 1.02 1.02 91 1002.0
20240416203035 45 110 10.0 16.0 0.33 1.00 1.00 91 1002.5
20240416202534 45 90 10.0 15.0 0.33 0.98 0.98 91 1002.3
20240416202034 45 109 8.0 12.0 0.31 0.95 0.95 90 1002.7
20240416201540 45 121 7.0 12.0 0.31 0.94 0.94 90 1002.5
20240416201035 45 102 7.0 13.0 0.30 0.92 0.92 90 1002.3
20240416200535 46 86 8.0 13.0 0.30 0.91 0.91 89 1002.5
20240416200032 46 100 5.0 8.0 0.28 0.89 0.89 89 1002.4
20240416195533 46 133 4.0 10.0 0.26 0.87 0.87 88 1003.0
20240416195032 46 144 5.0 16.0 0.23 0.83 0.83 88 1003.5
20240416194554 46 221 7.0 25.0 0.20 0.79 0.79 87 1003.4
20240416194033 46 271 13.0 25.0 0.12 0.71 0.71 86 1003.8
20240416193530 46 203 9.0 19.0 0.09 0.68 0.68 84 1001.7
20240416193032 46 91 11.0 31.0 0.08 0.67 0.67 84 1000.5
20240416192530 46 115 15.0 31.0 0.06 0.65 0.65 83 999.8
20240416192028 46 59 13.0 22.0 0.05 0.64 0.64 83 1000.2
20240416191551 46 63 10.0 21.0 0.04 0.63 0.63 82 1001.1
20240416191027 46 91 13.0 21.0 0.04 0.62 0.62 82 1001.2
20240416190527 46 105 10.0 20.0 0.03 0.61 0.61 82 1000.7
20240416190027 46 79 11.0 24.0 0.03 0.61 0.61 81 1000.8
20240416185531 46 93 14.0 24.0 0.02 0.60 0.60 82 1001.1
20240416185026 46 90 12.0 24.0 0.02 0.60 0.60 81 1001.0
20240416184536 46 91 14.0 22.0 0.01 0.59 0.59 82 1000.9
20240416184026 46 72 13.0 24.0 0.01 0.59 0.59 82 1001.4
20240416183528 46 93 14.0 24.0 0.02 0.59 0.59 83 1000.7
20240416183037 46 84 14.0 23.0 0.02 0.59 0.59 83 1000.8
20240416182524 46 72 10.0 23.0 0.02 0.59 0.59 83 1001.6
20240416182024 46 71 12.0 23.0 0.03 0.59 0.59 83 1001.3
20240416181523 46 82 13.0 20.0 0.03 0.59 0.59 82 1001.8
20240416181022 47 88 11.0 20.0 0.03 0.57 0.57 82 1002.4
20240416180522 47 109 11.0 22.0 0.03 0.57 0.57 83 1003.1
20240416180021 47 103 12.0 21.0 0.05 0.57 0.57 84 1002.5
20240416175520 46 77 11.0 23.0 0.07 0.57 0.57 84 1002.5
20240416175020 46 95 13.0 24.0 0.08 0.57 0.57 84 1002.6
20240416174520 46 93 12.0 20.0 0.09 0.57 0.57 85 1002.8
20240416174022 46 96 11.0 24.0 0.10 0.57 0.57 85 1002.9
20240416173519 46 90 15.0 24.0 0.10 0.56 0.56 85 1003.1
20240416173017 46 119 12.0 22.0 0.11 0.56 0.56 86 1003.4
20240416172517 46 100 13.0 22.0 0.11 0.56 0.56 85 1003.7
20240416172017 46 100 13.0 22.0 0.15 0.56 0.56 85 1003.2
20240416171517 46 56 14.0 24.0 0.15 0.56 0.56 85 1002.7
20240416171014 46 103 14.0 24.0 0.16 0.55 0.55 86 1003.1
20240416170513 46 51 11.0 17.0 0.18 0.54 0.54 88 1003.9
20240416170013 46 84 8.0 12.0 0.19 0.53 0.53 89 1005.0
20240416165510 46 63 7.0 12.0 0.20 0.51 0.51 89 1005.6
20240416165010 46 65 7.0 12.0 0.21 0.50 0.50 89 1006.0
20240416164512 46 79 7.0 14.0 0.24 0.49 0.49 88 1006.0
20240416164009 46 88 6.0 14.0 0.28 0.48 0.48 88 1006.3
20240416163508 46 89 6.0 12.0 0.30 0.47 0.47 88 1006.2
20240416163008 46 108 6.0 12.0 0.32 0.46 0.46 88 1006.2
20240416162508 46 77 4.0 9.0 0.34 0.45 0.45 87 1006.5
20240416162008 46 84 6.0 14.0 0.32 0.41 0.41 87 1006.6
20240416161508 46 77 7.0 14.0 0.34 0.41 0.41 87 1006.5
20240416161012 46 93 5.0 12.0 0.32 0.39 0.39 86 1006.4
20240416160510 46 72 8.0 12.0 0.30 0.35 0.35 85 1006.6
20240416160007 46 103 8.0 12.0 0.32 0.34 0.34 85 1007.0
20240416155505 46 93 9.0 11.0 0.30 0.30 0.30 84 1007.0
20240416155004 46 125 4.0 7.0 0.28 0.28 0.28 83 1007.3
20240416154503 47 107 2.0 9.0 0.23 0.23 0.23 81 1007.5
20240416154003 47 112 4.0 14.0 0.19 0.19 0.19 80 1007.8
20240416153502 47 138 7.0 17.0 0.16 0.16 0.16 79 1007.5
20240416153001 47 91 10.0 15.0 0.14 0.14 0.14 77 1007.3
20240416152600 47 65 8.0 15.0 0.11 0.11 0.11 76 1007.1
20240416152102 48 61 7.0 11.0 0.09 0.09 0.09 75 1007.6
20240416151635 48 83 6.0 18.0 0.07 0.07 0.07 74 1009.1
20240416151056 49 208 7.0 18.0 0.07 0.07 0.07 70 1008.5
20240416150558 49 123 9.0 22.0 0.05 0.05 0.06 69 1006.7
20240416150056 50 110 13.0 22.0 0.02 0.02 0.02 65 1006.9
20240416145555 51 127 9.0 22.0 0.00 0.00 0.00 62 1008.4
20240416145055 51 110 9.0 26.0 0.00 0.00 0.00 59 1007.3
20240416144601 51 123 13.0 25.0 0.00 0.00 0.00 57 1006.3
20240416144052 51 117 15.0 25.0 0.00 0.00 0.00 57 1006.2
20240416143554 51 100 15.0 31.0 0.00 0.00 0.00 56 1006.7
20240416143114 51 115 17.0 31.0 0.00 0.00 0.00 56 1006.9
20240416142552 51 74 11.0 25.0 0.00 0.00 0.00 57 1006.5
20240416142052 51 107 13.0 30.0 0.00 0.00 0.00 57 1006.4
20240416141552 51 115 15.0 30.0 0.00 0.00 0.00 59 1006.1
20240416141051 50 100 16.0 34.0 0.00 0.00 0.00 58 1005.9
20240416140552 50 103 15.0 32.0 0.00 0.00 0.00 59 1006.4
20240416140058 50 86 15.0 32.0 0.00 0.00 0.00 60 1006.7
20240416135547 50 93 15.0 29.0 0.00 0.00 0.00 61 1006.9
20240416135046 50 83 18.0 29.0 0.00 0.00 0.00 59 1007.0
20240416134546 50 119 15.0 29.0 0.00 0.00 0.00 61 1007.3
20240416134044 51 134 16.0 32.0 0.00 0.00 0.00 59 1007.6
20240416133542 51 110 13.0 28.0 0.00 0.00 0.00 57 1008.2
20240416133044 52 95 14.0 28.0 0.00 0.00 0.00 54 1008.4
20240416132539 52 130 18.0 28.0 0.00 0.00 0.00 50 1008.3
20240416132039 52 109 13.0 30.0 0.00 0.00 0.00 50 1008.4
20240416131540 52 112 14.0 34.0 0.00 0.00 0.00 50 1008.3
20240416131041 53 133 19.0 34.0 0.00 0.00 0.00 49 1008.0
20240416130538 53 112 15.0 36.0 0.00 0.00 0.00 48 1008.2
20240416130036 53 95 20.0 36.0 0.00 0.00 0.00 48 1007.9
20240416125536 53 112 17.0 32.0 0.00 0.00 0.00 47 1008.0
20240416125035 53 119 17.0 32.0 0.00 0.00 0.00 48 1007.9
20240416124551 53 127 16.0 25.0 0.00 0.00 0.00 48 1008.6
20240416124035 53 103 13.0 29.0 0.00 0.00 0.00 49 1008.5
20240416123534 53 148 18.0 31.0 0.00 0.00 0.00 49 1007.9
20240416123038 53 115 15.0 31.0 0.00 0.00 0.00 50 1007.6
20240416122531 53 79 18.0 31.0 0.00 0.00 0.00 48 1007.4
20240416122030 54 77 17.0 28.0 0.00 0.00 0.00 48 1007.5
20240416121529 54 84 13.0 31.0 0.00 0.00 0.00 49 1008.3
20240416121031 54 93 14.0 32.0 0.00 0.00 0.00 48 1008.5
20240416120528 54 123 17.0 32.0 0.00 0.00 0.00 48 1008.5
20240416120035 54 127 16.0 29.0 0.00 0.00 0.00 48 1008.3
20240416115527 54 101 14.0 26.0 0.00 0.00 0.00 47 1008.7
20240416115025 55 109 14.0 27.0 0.00 0.00 0.00 47 1008.8
20240416114525 55 125 16.0 28.0 0.00 0.00 0.00 47 1008.9
20240416114024 55 133 16.0 32.0 0.00 0.00 0.00 46 1008.6
20240416113522 55 125 19.0 36.0 0.00 0.00 0.00 46 1008.3
20240416113031 55 130 19.0 36.0 0.00 0.00 0.00 46 1008.4
20240416112521 55 112 14.0 23.0 0.00 0.00 0.00 46 1008.5
20240416112020 56 114 16.0 33.0 0.00 0.00 0.00 45 1008.6
20240416111520 55 103 15.0 33.0 0.00 0.00 0.00 46 1008.2
20240416111020 55 65 16.0 25.0 0.00 0.00 0.00 45 1008.1
20240416110519 56 130 12.0 25.0 0.00 0.00 0.00 45 1008.2
20240416110018 56 96 13.0 24.0 0.00 0.00 0.00 44 1008.1
20240416105517 56 84 14.0 25.0 0.00 0.00 0.00 44 1008.1
20240416105018 56 89 14.0 25.0 0.00 0.00 0.00 43 1008.0
20240416104516 56 122 13.0 28.0 0.00 0.00 0.00 42 1008.1
20240416104014 56 91 15.0 28.0 0.00 0.00 0.00 41 1008.2
20240416103513 56 93 15.0 27.0 0.00 0.00 0.00 40 1008.3
20240416103013 56 122 15.0 25.0 0.00 0.00 0.00 40 1008.4
20240416102516 56 108 13.0 25.0 0.00 0.00 0.00 39 1008.5
20240416102011 56 96 14.0 25.0 0.00 0.00 0.00 39 1008.4
20240416101513 56 114 15.0 27.0 0.00 0.00 0.00 38 1008.3
20240416101009 56 108 15.0 27.0 0.00 0.00 0.00 38 1008.7
20240416100509 56 100 13.0 23.0 0.00 0.00 0.00 38 1008.6
20240416100008 56 122 13.0 27.0 0.00 0.00 0.00 37 1008.7
20240416095506 56 122 13.0 27.0 0.00 0.00 0.00 37 1008.5
20240416095008 56 56 14.0 21.0 0.00 0.00 0.00 36 1008.7
20240416094504 56 117 11.0 21.0 0.00 0.00 0.00 36 1009.0
20240416094004 56 112 14.0 21.0 0.00 0.00 0.00 36 1008.9
20240416093503 56 107 11.0 20.0 0.00 0.00 0.00 36 1008.9
20240416093002 56 117 10.0 18.0 0.00 0.00 0.00 35 1009.1
20240416092501 56 112 9.0 19.0 0.00 0.00 0.00 35 1009.2
20240416092001 56 114 12.0 19.0 0.00 0.00 0.00 35 1009.4
20240416091502 56 117 9.0 21.0 0.00 0.00 0.00 35 1009.3
20240416091003 56 110 11.0 21.0 0.00 0.00 0.00 35 1009.3
20240416090501 56 95 12.0 22.0 0.00 0.00 0.00 35 1009.3
20240416090100 56 86 12.0 25.0 0.00 0.00 0.00 35 1008.9
20240416085559 56 122 12.0 25.0 0.00 0.00 0.00 34 1008.7
20240416085057 56 109 12.0 22.0 0.00 0.00 0.00 34 1008.9
20240416084605 56 95 11.0 22.0 0.00 0.00 0.00 34 1009.2
20240416084057 56 84 12.0 21.0 0.00 0.00 0.00 34 1009.4
20240416083556 57 91 12.0 26.0 0.00 0.00 0.00 33 1009.5
20240416083055 57 84 14.0 26.0 0.00 0.00 0.00 33 1009.4
20240416082557 57 105 11.0 23.0 0.00 0.00 0.00 34 1009.3
20240416082054 57 117 11.0 20.0 0.00 0.00 0.00 33 1009.3
20240416081554 57 136 12.0 20.0 0.00 0.00 0.00 33 1009.4
20240416081053 57 89 12.0 22.0 0.00 0.00 0.00 33 1009.3
20240416080553 57 90 11.0 20.0 0.00 0.00 0.00 33 1009.6
20240416080136 57 120 12.0 20.0 0.00 0.00 0.00 34 1009.5
20240416075552 57 63 10.0 22.0 0.00 0.00 0.00 34 1009.3
20240416075052 57 101 13.0 22.0 0.00 0.00 0.00 33 1009.2
20240416074556 57 117 12.0 19.0 0.00 0.00 0.00 33 1009.3
20240416074051 57 122 12.0 19.0 0.00 0.00 0.00 34 1009.5
20240416073551 57 112 12.0 22.0 0.00 0.00 0.00 34 1009.6
20240416073048 58 105 13.0 22.0 0.00 0.00 0.00 34 1009.5
20240416072547 58 103 11.0 21.0 0.00 0.00 0.00 34 1009.7
20240416072045 58 90 11.0 21.0 0.00 0.00 0.00 33 1010.1
20240416071545 58 109 14.0 21.0 0.00 0.00 0.00 33 1010.1
20240416071044 58 103 12.0 20.0 0.00 0.00 0.00 33 1010.1
20240416070544 58 90 12.0 20.0 0.00 0.00 0.00 33 1010.3
20240416070043 58 105 14.0 20.0 0.00 0.00 0.00 34 1010.4
20240416065542 58 96 11.0 24.0 0.00 0.00 0.00 34 1010.5
20240416065040 58 101 14.0 21.0 0.00 0.00 0.00 34 1010.6
20240416064541 58 102 11.0 20.0 0.00 0.00 0.00 34 1010.9
20240416064038 58 105 11.0 20.0 0.00 0.00 0.00 34 1011.1
20240416063538 58 90 11.0 17.0 0.00 0.00 0.00 34 1011.2
20240416063042 58 95 12.0 17.0 0.00 0.00 0.00 34 1011.3
20240416062536 58 103 10.0 20.0 0.00 0.00 0.00 34 1011.3
20240416062035 58 90 12.0 20.0 0.00 0.00 0.00 34 1011.4
20240416061536 58 86 11.0 17.0 0.00 0.00 0.00 34 1011.5
20240416061033 58 105 12.0 20.0 0.00 0.00 0.00 34 1011.6
20240416060532 58 112 11.0 18.0 0.00 0.00 0.00 34 1011.8
20240416060046 58 108 10.0 17.0 0.00 0.00 0.00 34 1011.9
20240416055533 58 76 10.0 17.0 0.00 0.00 0.00 34 1011.9
20240416055031 58 95 11.0 17.0 0.00 0.00 0.00 34 1011.9
20240416054530 58 112 9.0 16.0 0.00 0.00 0.00 34 1012.0
20240416054029 58 95 10.0 17.0 0.00 0.00 0.00 33 1012.1
20240416053528 58 90 10.0 17.0 0.00 0.00 0.00 33 1012.2
20240416053027 58 110 9.0 17.0 0.00 0.00 0.00 33 1012.3
20240416052527 58 132 9.0 17.0 0.00 0.00 0.00 33 1012.3
20240416052026 58 100 9.0 15.0 0.00 0.00 0.00 33 1012.4
20240416051532 59 91 10.0 15.0 0.00 0.00 0.00 33 1012.4
20240416051025 59 83 8.0 22.0 0.00 0.00 0.00 33 1012.4
20240416050523 59 110 10.0 22.0 0.00 0.00 0.00 32 1012.5
20240416050030 59 105 11.0 19.0 0.00 0.00 0.00 33 1012.5
20240416045521 59 96 11.0 19.0 0.00 0.00 0.00 33 1012.5
20240416045024 59 103 11.0 19.0 0.00 0.00 0.00 33 1012.5
20240416044522 59 95 10.0 18.0 0.00 0.00 0.00 33 1012.5
20240416044021 59 110 10.0 17.0 0.00 0.00 0.00 33 1012.5
20240416043522 59 103 8.0 14.0 0.00 0.00 0.00 34 1012.6
20240416043021 59 96 8.0 15.0 0.00 0.00 0.00 35 1012.6
20240416042521 59 109 10.0 16.0 0.00 0.00 0.00 34 1012.5
20240416042021 59 125 8.0 15.0 0.00 0.00 0.00 34 1012.6
20240416041522 59 103 9.0 16.0 0.00 0.00 0.00 35 1012.5
20240416041021 59 81 10.0 18.0 0.00 0.00 0.00 35 1012.4
20240416040521 59 96 9.0 18.0 0.00 0.00 0.00 34 1012.4
20240416040020 59 91 10.0 16.0 0.00 0.00 0.00 34 1012.4
20240416035521 59 115 8.0 16.0 0.00 0.00 0.00 34 1012.4
20240416035022 59 91 10.0 16.0 0.00 0.00 0.00 34 1012.6
20240416034522 60 105 10.0 16.0 0.00 0.00 0.00 33 1012.6
20240416034019 60 88 10.0 16.0 0.00 0.00 0.00 33 1012.6
20240416033520 60 122 8.0 16.0 0.00 0.00 0.00 33 1012.6
20240416033022 60 90 10.0 18.0 0.00 0.00 0.00 33 1012.6
20240416032520 60 96 10.0 18.0 0.00 0.00 0.00 33 1012.6
20240416032019 60 108 10.0 17.0 0.00 0.00 0.00 33 1012.6
20240416031521 60 108 10.0 17.0 0.00 0.00 0.00 32 1012.6
20240416031023 60 102 9.0 16.0 0.00 0.00 0.00 33 1012.6
20240416030522 61 112 10.0 18.0 0.00 0.00 0.00 32 1012.7
20240416030026 61 98 10.0 18.0 0.00 0.00 0.00 32 1012.7
20240416025521 61 93 10.0 18.0 0.00 0.00 0.00 32 1012.7
20240416025024 61 90 9.0 17.0 0.00 0.00 0.00 33 1012.7
20240416024527 61 102 10.0 17.0 0.00 0.00 0.00 32 1012.8
20240416024018 61 103 9.0 17.0 0.00 0.00 0.00 33 1012.8
20240416023519 61 100 9.0 16.0 0.00 0.00 0.00 33 1012.7
20240416023018 61 91 7.0 14.0 0.00 0.00 0.00 34 1012.7
20240416022517 61 117 7.0 16.0 0.00 0.00 0.00 34 1012.8
20240416022016 61 56 8.0 16.0 0.00 0.00 0.00 33 1012.8
20240416021516 61 77 8.0 15.0 0.00 0.00 0.00 34 1012.9
20240416021016 61 103 8.0 15.0 0.00 0.00 0.00 34 1012.8
20240416020518 61 136 6.0 14.0 0.00 0.00 0.00 34 1012.8
20240416020019 61 91 8.0 14.0 0.00 0.00 0.00 34 1012.9
20240416015515 62 93 8.0 12.0 0.00 0.00 0.00 34 1013.0
20240416015015 62 110 6.0 14.0 0.00 0.00 0.00 33 1012.9
20240416014517 62 108 7.0 16.0 0.00 0.00 0.00 33 1013.0
20240416014014 62 105 7.0 16.0 0.00 0.00 0.00 34 1013.1
20240416013515 62 82 5.0 11.0 0.00 0.00 0.00 33 1013.0
20240416013017 62 82 6.0 11.0 0.00 0.00 0.00 33 1013.0
20240416012515 62 105 7.0 12.0 0.00 0.00 0.00 32 1012.9
20240416012016 63 89 7.0 12.0 0.00 0.00 0.00 32 1012.9
20240416011515 63 72 7.0 13.0 0.00 0.00 0.00 32 1013.0
20240416011014 63 93 7.0 16.0 0.00 0.00 0.00 32 1013.0
20240416010514 63 82 7.0 16.0 0.00 0.00 0.00 32 1013.0
20240416010023 63 103 5.0 11.0 0.00 0.00 0.00 33 1013.0
20240416005514 63 105 6.0 12.0 0.00 0.00 0.00 31 1013.0
20240416005014 64 103 7.0 12.0 0.00 0.00 0.00 31 1013.0
20240416004514 64 101 6.0 15.0 0.00 0.00 0.00 31 1013.0
20240416004013 64 103 8.0 15.0 0.00 0.00 0.00 31 1013.1
20240416003513 64 76 7.0 12.0 0.00 0.00 0.00 31 1013.2
20240416003018 65 108 5.0 13.0 0.00 0.00 0.00 32 1013.2
20240416002512 65 65 6.0 15.0 0.00 0.00 0.00 31 1013.2
20240416002012 65 96 7.0 12.0 0.00 0.00 0.00 31 1013.1
20240416001516 65 79 7.0 12.0 0.00 0.00 0.00 30 1013.1
20240416001018 65 96 6.0 14.0 0.00 0.00 0.00 31 1013.1